CNS weather

Cairns International Airport
Cairns, Queensland, Australia

Public forecast

Using degrees Celsius for public forecast. Weather courtesy of forecast.io.

METAR (pilot weather report)

Retrieved 2017/05/23 16:30 UTC (12 minutes ago):

YBCS 231630Z 16012KT 9999 FEW008 SCT024 BKN035 23/21 Q1015 INTER 1630/1930 4000 SHRA BKN018

TAF (pilot weather forecast)

Retrieved 2017/05/23 12:00 UTC (5 hours ago):

TAF YBCS 231106Z 2312/2412 16008KT 9999 -SHRA SCT022 BKN040 FM232300 13015KT 9999 -SHRA SCT025 BKN040 FM240800 16008KT 9999 -SHRA SCT022 BKN040 INTER 2316/2324 4000 SHRA BKN018